Time;durP1;ratioP1;P1;durP2;ratioP2;P2;SDS_P1;SDS_P2;PMS_P1;PMS_P2;Temp;Humidity;BMP_temperature;BMP_pressure;BME280_temperature;BME280_humidity;BME280_pressure;Samples;Min_cycle;Max_cycle;Signal;HPM_P1;HPM_P2
2021/01/10 00:00:30;;;;;;;20.75;15.80;;;;;;;;;;5032934;28;20202;-54
2021/01/10 00:02:58;;;;;;;18.60;15.18;;;;;;;;;;5032828;28;20257;-54
2021/01/10 00:05:25;;;;;;;18.52;15.15;;;;;;;;;;5033289;28;20198;-53
2021/01/10 00:07:52;;;;;;;21.65;16.65;;;;;;;;;;5032846;28;20222;-54
2021/01/10 00:10:20;;;;;;;16.95;14.30;;;;;;;;;;5034293;28;20206;-54
2021/01/10 00:12:47;;;;;;;20.27;15.10;;;;;;;;;;5033546;28;20253;-54
2021/01/10 00:15:15;;;;;;;24.10;16.13;;;;;;;;;;5032869;28;20203;-54
2021/01/10 00:17:44;;;;;;;19.48;15.10;;;;;;;;;;5032978;28;20214;-54
2021/01/10 00:20:12;;;;;;;18.75;16.23;;;;;;;;;;5033056;28;20556;-54
2021/01/10 00:22:39;;;;;;;18.48;14.32;;;;;;;;;;5034378;28;20558;-55
2021/01/10 00:25:06;;;;;;;19.25;15.95;;;;;;;;;;5036981;28;20229;-54
2021/01/10 00:27:33;;;;;;;18.00;14.98;;;;;;;;;;5037120;28;20233;-54
2021/01/10 00:30:00;;;;;;;19.27;15.45;;;;;;;;;;5037162;28;20205;-54
2021/01/10 00:32:27;;;;;;;19.33;15.18;;;;;;;;;;5036647;28;20218;-54
2021/01/10 00:34:54;;;;;;;18.88;15.27;;;;;;;;;;5036808;28;20217;-51
2021/01/10 00:37:22;;;;;;;21.63;15.50;;;;;;;;;;5036566;28;20733;-54
2021/01/10 00:39:49;;;;;;;20.38;16.67;;;;;;;;;;5036902;28;20205;-54
2021/01/10 00:42:16;;;;;;;18.00;15.10;;;;;;;;;;5036838;28;20206;-54
2021/01/10 00:44:43;;;;;;;18.08;14.45;;;;;;;;;;5036652;28;20244;-54
2021/01/10 00:47:10;;;;;;;22.27;15.93;;;;;;;;;;5037766;28;20233;-54
2021/01/10 00:49:37;;;;;;;17.52;14.85;;;;;;;;;;5036511;28;20276;-54
2021/01/10 00:52:04;;;;;;;19.35;15.63;;;;;;;;;;5036564;28;20203;-54
2021/01/10 00:54:32;;;;;;;19.33;15.07;;;;;;;;;;5036513;28;20198;-54
2021/01/10 00:56:59;;;;;;;22.45;16.25;;;;;;;;;;5036496;28;20226;-54
2021/01/10 00:59:26;;;;;;;19.75;15.68;;;;;;;;;;5037747;28;20216;-54
2021/01/10 01:01:53;;;;;;;18.85;16.17;;;;;;;;;;5036198;28;20621;-54
2021/01/10 01:04:20;;;;;;;20.50;16.60;;;;;;;;;;5036189;28;20214;-54
2021/01/10 01:06:47;;;;;;;22.30;17.67;;;;;;;;;;5036489;28;20229;-54
2021/01/10 01:09:14;;;;;;;23.95;16.95;;;;;;;;;;5036354;28;20260;-54
2021/01/10 01:11:41;;;;;;;20.08;15.05;;;;;;;;;;5036274;28;20690;-55
2021/01/10 01:14:09;;;;;;;20.52;16.60;;;;;;;;;;5036179;28;20202;-54
2021/01/10 01:16:36;;;;;;;19.30;16.13;;;;;;;;;;5035810;28;20222;-54
2021/01/10 01:19:03;;;;;;;22.92;17.58;;;;;;;;;;5036055;28;20206;-54
2021/01/10 01:21:30;;;;;;;22.42;16.60;;;;;;;;;;5036105;28;20213;-55
2021/01/10 01:23:56;;;;;;;20.48;15.48;;;;;;;;;;5035998;28;20225;-54
2021/01/10 01:26:24;;;;;;;20.63;16.58;;;;;;;;;;5035512;28;20230;-54
2021/01/10 01:28:53;;;;;;;19.30;14.68;;;;;;;;;;5035501;28;20702;-54
2021/01/10 01:31:21;;;;;;;19.58;15.43;;;;;;;;;;5035905;28;20198;-54
2021/01/10 01:33:48;;;;;;;21.13;15.30;;;;;;;;;;5035180;28;20202;-55
2021/01/10 01:36:16;;;;;;;18.40;14.40;;;;;;;;;;5034983;28;20206;-54
2021/01/10 01:38:43;;;;;;;20.48;16.52;;;;;;;;;;5035836;28;20206;-55
2021/01/10 01:41:10;;;;;;;20.95;15.45;;;;;;;;;;5035812;28;20232;-55
2021/01/10 01:43:37;;;;;;;19.00;14.93;;;;;;;;;;5036111;28;20328;-54
2021/01/10 01:46:05;;;;;;;21.88;16.92;;;;;;;;;;5035231;28;20658;-55
2021/01/10 01:48:32;;;;;;;20.35;16.65;;;;;;;;;;5035605;28;20226;-54
2021/01/10 01:50:59;;;;;;;17.45;14.70;;;;;;;;;;5036021;28;20202;-54
2021/01/10 01:53:26;;;;;;;18.70;16.05;;;;;;;;;;5036216;28;20309;-54
2021/01/10 01:55:53;;;;;;;20.67;15.68;;;;;;;;;;5035648;28;20256;-54
2021/01/10 01:58:20;;;;;;;22.10;16.63;;;;;;;;;;5035466;28;20227;-54
2021/01/10 02:00:47;;;;;;;21.10;14.52;;;;;;;;;;5035381;28;20209;-54
2021/01/10 02:03:20;;;;;;;20.00;14.32;;;;;;;;;;5035090;28;20206;-54
2021/01/10 02:05:48;;;;;;;20.92;16.63;;;;;;;;;;5034956;28;20189;-54
2021/01/10 02:08:15;;;;;;;19.05;15.80;;;;;;;;;;5034952;28;20630;-54
2021/01/10 02:10:42;;;;;;;18.77;15.25;;;;;;;;;;5035261;28;20209;-54
2021/01/10 02:13:12;;;;;;;23.08;17.45;;;;;;;;;;5035311;28;20210;-54
2021/01/10 02:15:40;;;;;;;22.00;15.95;;;;;;;;;;5035114;28;20210;-54
2021/01/10 02:18:08;;;;;;;21.20;16.17;;;;;;;;;;5034703;28;20229;-54
2021/01/10 02:20:37;;;;;;;19.45;15.38;;;;;;;;;;5034741;28;20205;-54
2021/01/10 02:23:05;;;;;;;20.67;15.40;;;;;;;;;;5034988;28;20203;-54
2021/01/10 02:25:34;;;;;;;21.58;14.68;;;;;;;;;;5034613;28;20202;-54
2021/01/10 02:28:02;;;;;;;18.40;14.55;;;;;;;;;;5035551;28;20296;-54
2021/01/10 02:30:29;;;;;;;20.25;16.67;;;;;;;;;;5034677;28;20675;-54
2021/01/10 02:33:03;;;;;;;18.95;14.93;;;;;;;;;;5034796;28;20202;-54
2021/01/10 02:35:31;;;;;;;23.83;16.50;;;;;;;;;;5034789;28;20269;-54
2021/01/10 02:38:03;;;;;;;20.15;15.05;;;;;;;;;;5034663;28;20246;-54
2021/01/10 02:40:33;;;;;;;21.40;15.35;;;;;;;;;;5034619;28;20558;-54
2021/01/10 02:43:04;;;;;;;24.58;16.48;;;;;;;;;;5034311;28;20203;-54
2021/01/10 02:45:32;;;;;;;18.55;14.70;;;;;;;;;;5034207;28;20241;-54
2021/01/10 02:47:59;;;;;;;19.77;14.85;;;;;;;;;;5033617;28;20269;-54
2021/01/10 02:50:27;;;;;;;21.77;14.52;;;;;;;;;;5034356;28;20205;-54
2021/01/10 02:52:54;;;;;;;19.40;14.90;;;;;;;;;;5034349;28;20217;-54
2021/01/10 02:55:20;;;;;;;22.33;14.23;;;;;;;;;;5034362;28;20198;-54
2021/01/10 02:57:49;;;;;;;20.60;15.65;;;;;;;;;;5033901;28;20273;-54
2021/01/10 03:00:18;;;;;;;20.05;14.40;;;;;;;;;;5034288;28;20241;-54
2021/01/10 03:02:46;;;;;;;19.15;14.55;;;;;;;;;;5034229;28;20589;-54
2021/01/10 03:05:13;;;;;;;22.23;15.38;;;;;;;;;;5034848;28;20233;-54
2021/01/10 03:07:41;;;;;;;18.98;13.48;;;;;;;;;;5033983;28;20223;-54
2021/01/10 03:10:10;;;;;;;20.77;14.75;;;;;;;;;;5034268;28;20260;-54
2021/01/10 03:12:37;;;;;;;19.38;14.80;;;;;;;;;;5033759;28;20674;-55
2021/01/10 03:15:04;;;;;;;19.50;14.70;;;;;;;;;;5033928;28;20210;-55
2021/01/10 03:17:34;;;;;;;20.70;15.18;;;;;;;;;;5033983;28;20245;-55
2021/01/10 03:20:01;;;;;;;20.17;13.98;;;;;;;;;;5033875;28;20289;-55
2021/01/10 03:22:28;;;;;;;19.50;14.55;;;;;;;;;;5034840;28;20206;-54
2021/01/10 03:24:55;;;;;;;22.58;15.55;;;;;;;;;;5033846;28;20213;-54
2021/01/10 03:27:21;;;;;;;26.50;16.05;;;;;;;;;;5033666;28;20222;-54
2021/01/10 03:29:48;;;;;;;19.15;14.75;;;;;;;;;;5033437;28;20206;-54
2021/01/10 03:32:15;;;;;;;19.85;14.82;;;;;;;;;;5033376;28;20674;-54
2021/01/10 03:34:43;;;;;;;18.30;14.50;;;;;;;;;;5033365;28;20671;-54
2021/01/10 03:37:10;;;;;;;20.70;14.02;;;;;;;;;;5033958;28;20575;-54
2021/01/10 03:39:36;;;;;;;18.45;13.95;;;;;;;;;;5034280;28;20210;-55
2021/01/10 03:42:03;;;;;;;23.27;15.23;;;;;;;;;;5034757;28;20207;-55
2021/01/10 03:44:30;;;;;;;20.08;15.05;;;;;;;;;;5034287;28;20274;-55
2021/01/10 03:46:57;;;;;;;18.73;14.73;;;;;;;;;;5033211;28;20284;-55
2021/01/10 03:49:24;;;;;;;19.95;15.95;;;;;;;;;;5033421;28;20230;-55
2021/01/10 03:51:51;;;;;;;19.55;14.90;;;;;;;;;;5033076;28;20233;-53
2021/01/10 03:54:18;;;;;;;23.38;15.80;;;;;;;;;;5033376;28;20202;-54
2021/01/10 03:56:45;;;;;;;18.40;14.07;;;;;;;;;;5033355;28;20226;-54
2021/01/10 03:59:11;;;;;;;22.50;15.18;;;;;;;;;;5032737;28;20662;-54
2021/01/10 04:01:38;;;;;;;19.42;14.93;;;;;;;;;;5033046;28;20206;-54
2021/01/10 04:07:36;;;;;;;25.17;16.73;;;;;;;;;;5111683;27;20548;-55
2021/01/10 04:10:03;;;;;;;20.77;15.40;;;;;;;;;;5111333;28;20202;-56
2021/01/10 04:12:30;;;;;;;25.00;16.65;;;;;;;;;;5110963;28;20690;-56
2021/01/10 04:14:56;;;;;;;22.88;15.82;;;;;;;;;;5111054;28;20328;-56
2021/01/10 04:17:25;;;;;;;23.00;15.63;;;;;;;;;;5111039;28;20215;-56
2021/01/10 04:19:52;;;;;;;22.50;16.13;;;;;;;;;;5086665;22;20356;-57
2021/01/10 04:22:18;;;;;;;18.15;14.32;;;;;;;;;;5051428;28;20202;-57
2021/01/10 04:24:46;;;;;;;22.52;17.33;;;;;;;;;;5050231;28;20201;-57
2021/01/10 04:27:13;;;;;;;21.80;15.80;;;;;;;;;;5050246;28;20273;-57
2021/01/10 04:29:39;;;;;;;21.10;15.93;;;;;;;;;;5050271;28;20695;-58
2021/01/10 04:32:06;;;;;;;20.70;14.85;;;;;;;;;;5050479;28;20271;-59
2021/01/10 04:34:33;;;;;;;22.38;15.45;;;;;;;;;;5050211;28;20251;-57
2021/01/10 04:37:00;;;;;;;22.52;15.80;;;;;;;;;;5050076;28;20292;-57
2021/01/10 04:39:27;;;;;;;24.55;15.75;;;;;;;;;;5050317;28;20230;-58
2021/01/10 04:41:55;;;;;;;20.02;14.38;;;;;;;;;;5049874;28;20212;-57
2021/01/10 04:44:23;;;;;;;25.48;15.88;;;;;;;;;;5050017;28;20218;-57
2021/01/10 04:46:50;;;;;;;20.13;14.20;;;;;;;;;;5049498;28;20701;-58
2021/01/10 04:49:17;;;;;;;19.65;14.60;;;;;;;;;;5049495;28;20226;-57
2021/01/10 04:51:44;;;;;;;20.52;15.70;;;;;;;;;;5050041;28;20202;-58
2021/01/10 04:54:12;;;;;;;20.75;15.50;;;;;;;;;;5050468;28;20686;-58
2021/01/10 04:56:39;;;;;;;22.20;15.95;;;;;;;;;;5051902;28;20335;-58
2021/01/10 04:59:06;;;;;;;24.77;17.42;;;;;;;;;;5050708;28;20218;-57
2021/01/10 05:01:36;;;;;;;26.00;16.70;;;;;;;;;;5049975;28;20236;-57
2021/01/10 05:04:04;;;;;;;24.35;15.52;;;;;;;;;;5050527;28;20198;-57
2021/01/10 05:06:33;;;;;;;25.00;16.92;;;;;;;;;;5049871;28;20218;-58
2021/01/10 05:09:00;;;;;;;26.02;18.00;;;;;;;;;;5049431;28;20225;-57
2021/01/10 05:11:28;;;;;;;25.35;15.88;;;;;;;;;;5049891;28;20201;-58
2021/01/10 05:13:55;;;;;;;26.50;16.90;;;;;;;;;;5049454;28;20202;-57
2021/01/10 05:16:23;;;;;;;26.50;17.33;;;;;;;;;;5049862;28;20198;-57
2021/01/10 05:18:51;;;;;;;25.00;15.85;;;;;;;;;;5036498;28;20231;-57
2021/01/10 05:21:19;;;;;;;26.20;17.33;;;;;;;;;;5036619;28;20233;-57
2021/01/10 05:23:46;;;;;;;23.75;17.50;;;;;;;;;;5036164;28;20292;-58
2021/01/10 05:26:13;;;;;;;21.10;15.20;;;;;;;;;;5036480;28;20230;-57
2021/01/10 05:28:40;;;;;;;28.25;18.58;;;;;;;;;;5036147;28;20596;-58
2021/01/10 05:31:09;;;;;;;26.00;15.52;;;;;;;;;;5036322;28;20685;-58
2021/01/10 05:33:48;;;;;;;28.67;17.40;;;;;;;;;;5036962;28;20236;-57
2021/01/10 05:36:25;;;;;;;23.17;16.30;;;;;;;;;;5037190;28;20186;-57
2021/01/10 05:38:52;;;;;;;26.73;17.35;;;;;;;;;;5037090;28;20222;-57
2021/01/10 05:41:20;;;;;;;26.02;16.40;;;;;;;;;;5039475;28;20666;-57
2021/01/10 05:44:02;;;;;;;27.85;17.45;;;;;;;;;;5038623;28;20213;-57
2021/01/10 05:46:31;;;;;;;26.13;16.52;;;;;;;;;;5041385;28;20222;-58
2021/01/10 05:48:59;;;;;;;25.83;16.83;;;;;;;;;;5039484;28;20290;-57
2021/01/10 05:51:29;;;;;;;25.25;17.38;;;;;;;;;;5041878;28;20213;-57
2021/01/10 05:53:56;;;;;;;23.65;16.25;;;;;;;;;;5041280;28;20206;-58
2021/01/10 05:56:23;;;;;;;25.48;17.27;;;;;;;;;;5040634;28;20211;-58
2021/01/10 05:58:57;;;;;;;24.48;17.38;;;;;;;;;;5041319;28;20223;-58
2021/01/10 06:01:24;;;;;;;22.85;16.45;;;;;;;;;;5037076;28;20659;-56
2021/01/10 06:03:51;;;;;;;29.75;17.65;;;;;;;;;;5035797;28;20228;-58
2021/01/10 06:06:19;;;;;;;27.48;17.88;;;;;;;;;;5040116;28;20663;-58
2021/01/10 06:08:46;;;;;;;27.75;16.90;;;;;;;;;;5044323;28;20222;-59
2021/01/10 06:11:17;;;;;;;22.67;15.80;;;;;;;;;;5043358;28;20209;-56
2021/01/10 06:14:04;;;;;;;25.75;17.50;;;;;;;;;;5045856;28;20206;-57
2021/01/10 06:16:32;;;;;;;29.83;17.35;;;;;;;;;;5038993;28;20252;-58
2021/01/10 06:18:59;;;;;;;26.60;18.27;;;;;;;;;;5040890;28;20233;-58
2021/01/10 06:21:28;;;;;;;26.15;17.35;;;;;;;;;;5042775;28;20213;-57
2021/01/10 06:23:57;;;;;;;27.92;17.60;;;;;;;;;;5043309;28;20206;-57
2021/01/10 06:26:24;;;;;;;29.23;17.67;;;;;;;;;;5036651;28;20226;-63
2021/01/10 06:28:52;;;;;;;29.15;18.52;;;;;;;;;;5035322;28;20226;-58
2021/01/10 06:31:23;;;;;;;29.67;18.77;;;;;;;;;;5035358;28;20207;-56
2021/01/10 06:33:53;;;;;;;31.02;19.15;;;;;;;;;;5035522;28;20194;-57
2021/01/10 06:36:21;;;;;;;29.80;18.73;;;;;;;;;;5035363;28;20179;-58
2021/01/10 06:38:51;;;;;;;24.83;18.00;;;;;;;;;;5035422;28;20272;-58
2021/01/10 06:41:29;;;;;;;29.33;17.10;;;;;;;;;;5051266;28;20209;-57
2021/01/10 06:43:58;;;;;;;28.05;18.25;;;;;;;;;;5047059;28;20190;-58
2021/01/10 06:46:25;;;;;;;25.83;17.40;;;;;;;;;;5035313;28;20600;-57
2021/01/10 06:48:52;;;;;;;31.25;18.67;;;;;;;;;;5037303;28;20226;-57
2021/01/10 06:51:22;;;;;;;28.77;17.52;;;;;;;;;;5034351;28;20206;-58
2021/01/10 06:53:50;;;;;;;29.02;18.60;;;;;;;;;;5034676;28;20209;-58
2021/01/10 06:56:17;;;;;;;27.20;17.90;;;;;;;;;;5039735;28;20211;-57
2021/01/10 06:59:01;;;;;;;33.40;18.75;;;;;;;;;;5034117;28;20226;-58
2021/01/10 07:01:43;;;;;;;31.38;19.40;;;;;;;;;;5034055;28;20710;-58
2021/01/10 07:04:10;;;;;;;30.10;18.67;;;;;;;;;;5034019;28;20264;-58
2021/01/10 07:06:43;;;;;;;29.80;17.92;;;;;;;;;;5034385;28;20222;-57
2021/01/10 07:09:11;;;;;;;30.65;18.58;;;;;;;;;;5034395;28;20226;-56
2021/01/10 07:11:38;;;;;;;29.73;18.80;;;;;;;;;;5034608;28;20206;-57
2021/01/10 07:14:23;;;;;;;31.38;19.08;;;;;;;;;;5034273;28;20229;-58
2021/01/10 07:16:50;;;;;;;27.73;18.27;;;;;;;;;;5034479;28;20199;-57
2021/01/10 07:19:18;;;;;;;30.02;17.83;;;;;;;;;;5034009;28;20238;-57
2021/01/10 07:21:45;;;;;;;31.50;19.63;;;;;;;;;;5034261;28;20209;-59
2021/01/10 07:24:32;;;;;;;30.38;18.10;;;;;;;;;;5033812;28;20608;-59
2021/01/10 07:26:59;;;;;;;29.17;18.35;;;;;;;;;;5034171;28;20226;-59
2021/01/10 07:29:26;;;;;;;31.23;18.90;;;;;;;;;;5033920;28;20229;-59
2021/01/10 07:31:56;;;;;;;30.38;17.92;;;;;;;;;;5033828;28;20255;-58
2021/01/10 07:34:23;;;;;;;32.65;20.50;;;;;;;;;;5034142;28;20210;-59
2021/01/10 07:36:51;;;;;;;32.28;18.77;;;;;;;;;;5034046;28;20253;-58
2021/01/10 07:39:18;;;;;;;34.60;20.75;;;;;;;;;;5033945;28;20230;-58
2021/01/10 07:41:46;;;;;;;35.15;21.27;;;;;;;;;;5033680;28;20685;-58
2021/01/10 07:44:13;;;;;;;40.90;20.80;;;;;;;;;;5033977;28;20533;-58
2021/01/10 07:47:01;;;;;;;33.90;19.42;;;;;;;;;;5033687;28;20289;-59
2021/01/10 07:49:29;;;;;;;34.65;19.63;;;;;;;;;;5029449;28;20222;-58
2021/01/10 07:51:56;;;;;;;32.65;18.50;;;;;;;;;;5033590;28;20206;-57
2021/01/10 07:54:46;;;;;;;36.40;20.60;;;;;;;;;;5033899;28;20697;-57
2021/01/10 07:57:28;;;;;;;35.65;20.02;;;;;;;;;;5018811;28;20202;-57
2021/01/10 08:00:13;;;;;;;33.22;19.85;;;;;;;;;;5033654;28;20229;-56
2021/01/10 08:03:01;;;;;;;31.90;19.60;;;;;;;;;;5038362;28;20190;-57
2021/01/10 08:05:29;;;;;;;34.50;19.23;;;;;;;;;;5037577;28;20221;-59
2021/01/10 08:07:57;;;;;;;34.85;20.45;;;;;;;;;;5033711;28;20247;-58
2021/01/10 08:10:25;;;;;;;31.23;18.92;;;;;;;;;;5033702;28;20206;-59
2021/01/10 08:12:53;;;;;;;34.38;20.50;;;;;;;;;;5034298;28;20210;-58
2021/01/10 08:15:20;;;;;;;36.47;19.90;;;;;;;;;;5034275;28;20202;-59
2021/01/10 08:17:47;;;;;;;34.60;20.63;;;;;;;;;;5034113;28;20199;-58
2021/01/10 08:20:14;;;;;;;40.28;21.50;;;;;;;;;;5034117;28;20241;-58
2021/01/10 08:22:41;;;;;;;32.90;19.83;;;;;;;;;;5034451;28;20199;-59
2021/01/10 08:25:22;;;;;;;37.58;21.95;;;;;;;;;;5034550;28;20246;-58
2021/01/10 08:27:49;;;;;;;30.88;18.30;;;;;;;;;;5035427;28;20253;-58
2021/01/10 08:30:17;;;;;;;34.60;19.65;;;;;;;;;;5035109;28;20706;-57
2021/01/10 08:32:43;;;;;;;33.30;19.55;;;;;;;;;;5034286;28;20206;-58
2021/01/10 08:35:11;;;;;;;36.97;20.63;;;;;;;;;;5034017;28;20210;-59
2021/01/10 08:37:38;;;;;;;35.10;19.27;;;;;;;;;;5034239;28;20206;-58
2021/01/10 08:40:07;;;;;;;29.52;19.30;;;;;;;;;;5033815;28;20222;-58
2021/01/10 08:42:34;;;;;;;36.97;20.33;;;;;;;;;;5033768;28;20202;-58
2021/01/10 08:45:18;;;;;;;34.05;20.33;;;;;;;;;;5033581;28;20211;-57
2021/01/10 08:47:45;;;;;;;35.50;20.88;;;;;;;;;;5033373;28;20241;-58
2021/01/10 08:50:12;;;;;;;34.10;18.48;;;;;;;;;;5032931;28;20222;-59
2021/01/10 08:52:55;;;;;;;30.40;18.52;;;;;;;;;;5034418;28;20202;-58
2021/01/10 08:55:34;;;;;;;29.63;17.55;;;;;;;;;;5038235;28;20252;-59
2021/01/10 08:58:01;;;;;;;33.70;19.95;;;;;;;;;;5037030;28;20206;-58
2021/01/10 09:00:29;;;;;;;32.55;19.02;;;;;;;;;;5038262;28;20198;-58
2021/01/10 09:02:56;;;;;;;30.08;19.02;;;;;;;;;;5036816;28;20264;-59
2021/01/10 09:05:24;;;;;;;31.67;19.00;;;;;;;;;;5037237;28;20210;-57
2021/01/10 09:07:54;;;;;;;32.60;19.70;;;;;;;;;;5036947;28;20218;-58
2021/01/10 09:10:22;;;;;;;32.83;19.40;;;;;;;;;;5037063;28;20294;-58
2021/01/10 09:12:52;;;;;;;31.85;19.83;;;;;;;;;;5037312;28;20209;-56
2021/01/10 09:15:20;;;;;;;34.85;20.02;;;;;;;;;;5036797;28;20271;-58
2021/01/10 09:17:50;;;;;;;32.50;19.23;;;;;;;;;;5036825;28;20198;-58
2021/01/10 09:20:20;;;;;;;26.75;17.67;;;;;;;;;;5036632;28;20229;-58
2021/01/10 09:22:46;;;;;;;31.42;17.98;;;;;;;;;;5036557;28;20675;-58
2021/01/10 09:25:14;;;;;;;28.13;17.00;;;;;;;;;;5039736;28;20255;-63
2021/01/10 09:28:05;;;;;;;32.95;19.40;;;;;;;;;;5045802;28;20226;-58
2021/01/10 09:30:32;;;;;;;32.83;20.55;;;;;;;;;;5036823;28;20186;-57
2021/01/10 09:33:00;;;;;;;30.48;19.17;;;;;;;;;;5036856;28;20694;-58
2021/01/10 09:35:27;;;;;;;28.92;17.83;;;;;;;;;;5037061;28;20217;-58
2021/01/10 09:37:53;;;;;;;27.35;17.85;;;;;;;;;;5040003;28;20209;-58
2021/01/10 09:40:20;;;;;;;34.40;18.83;;;;;;;;;;5036168;28;20222;-58
2021/01/10 09:42:49;;;;;;;30.05;18.38;;;;;;;;;;5036161;28;20214;-61
2021/01/10 09:45:18;;;;;;;26.05;17.25;;;;;;;;;;5035692;28;20209;-60
2021/01/10 09:47:44;;;;;;;30.33;16.77;;;;;;;;;;5035535;28;20218;-61
2021/01/10 09:50:16;;;;;;;28.92;19.30;;;;;;;;;;5036075;28;20241;-59
2021/01/10 09:52:52;;;;;;;35.58;19.70;;;;;;;;;;5049186;28;20210;-58
2021/01/10 09:55:20;;;;;;;28.70;18.90;;;;;;;;;;5046001;28;20205;-59
2021/01/10 09:57:46;;;;;;;28.67;19.10;;;;;;;;;;5039760;28;20198;-60
2021/01/10 10:00:17;;;;;;;28.73;16.15;;;;;;;;;;5040083;28;20292;-58
2021/01/10 10:02:44;;;;;;;26.02;17.75;;;;;;;;;;5035248;28;20203;-60
2021/01/10 10:05:12;;;;;;;30.10;18.88;;;;;;;;;;5035889;28;20198;-58
2021/01/10 10:07:41;;;;;;;27.38;18.85;;;;;;;;;;5038377;28;20214;-59
2021/01/10 10:10:09;;;;;;;29.35;17.00;;;;;;;;;;5036257;28;20238;-59
2021/01/10 10:12:35;;;;;;;31.50;18.92;;;;;;;;;;5035648;28;20209;-58
2021/01/10 10:15:06;;;;;;;31.45;19.05;;;;;;;;;;5035463;28;20256;-58
2021/01/10 10:17:35;;;;;;;28.70;19.50;;;;;;;;;;5035152;28;20264;-59
2021/01/10 10:20:02;;;;;;;27.83;16.38;;;;;;;;;;5035220;28;20246;-59
2021/01/10 10:22:30;;;;;;;27.33;17.33;;;;;;;;;;5069416;22;20764;-55
2021/01/10 10:24:58;;;;;;;30.27;17.92;;;;;;;;;;5035016;28;20203;-55
2021/01/10 10:27:25;;;;;;;33.72;19.50;;;;;;;;;;5035204;28;20218;-55
2021/01/10 10:29:52;;;;;;;30.42;17.17;;;;;;;;;;5035278;28;20252;-57
2021/01/10 10:32:19;;;;;;;27.63;17.55;;;;;;;;;;5035254;28;20222;-55
2021/01/10 10:34:46;;;;;;;33.97;19.20;;;;;;;;;;5035013;28;20202;-56
2021/01/10 10:37:14;;;;;;;29.63;17.73;;;;;;;;;;5034726;28;20542;-56
2021/01/10 10:39:41;;;;;;;29.80;19.13;;;;;;;;;;5034778;28;20561;-55
2021/01/10 10:42:10;;;;;;;28.88;19.02;;;;;;;;;;5034766;28;20222;-55
2021/01/10 10:44:37;;;;;;;31.90;18.77;;;;;;;;;;5035787;28;20202;-55
2021/01/10 10:47:04;;;;;;;26.33;17.42;;;;;;;;;;5034348;28;20214;-56
2021/01/10 10:49:31;;;;;;;28.48;17.25;;;;;;;;;;5034708;28;20252;-55
2021/01/10 10:51:58;;;;;;;28.45;18.27;;;;;;;;;;5034330;28;20714;-54
2021/01/10 10:54:25;;;;;;;29.63;18.02;;;;;;;;;;5034167;28;20556;-57
2021/01/10 10:56:52;;;;;;;31.52;18.88;;;;;;;;;;5034582;28;20205;-57
2021/01/10 10:59:19;;;;;;;28.83;17.90;;;;;;;;;;5034819;28;20309;-57
2021/01/10 11:01:48;;;;;;;29.90;17.45;;;;;;;;;;5034716;28;20227;-56
2021/01/10 11:04:15;;;;;;;30.30;17.50;;;;;;;;;;5034818;28;20299;-56
2021/01/10 11:06:42;;;;;;;31.95;19.20;;;;;;;;;;5034339;28;20240;-56
2021/01/10 11:09:09;;;;;;;30.60;19.05;;;;;;;;;;5034259;28;20203;-56
2021/01/10 11:11:37;;;;;;;28.27;17.45;;;;;;;;;;5035350;28;20222;-57
2021/01/10 11:14:04;;;;;;;28.50;17.83;;;;;;;;;;5035292;28;20198;-58
2021/01/10 11:16:32;;;;;;;29.80;18.20;;;;;;;;;;5034439;28;20281;-56
2021/01/10 11:18:59;;;;;;;23.35;16.42;;;;;;;;;;5034118;28;20236;-56
2021/01/10 11:21:29;;;;;;;29.23;17.02;;;;;;;;;;5033696;28;20646;-56
2021/01/10 11:23:56;;;;;;;28.00;17.00;;;;;;;;;;5033486;28;20256;-56
2021/01/10 11:26:23;;;;;;;26.98;16.05;;;;;;;;;;5034050;28;20276;-56
2021/01/10 11:28:50;;;;;;;26.80;15.80;;;;;;;;;;5033901;28;20209;-57
2021/01/10 11:31:17;;;;;;;31.90;18.52;;;;;;;;;;5034154;28;20226;-55
2021/01/10 11:33:45;;;;;;;27.15;17.73;;;;;;;;;;5033300;28;20198;-55
2021/01/10 11:36:12;;;;;;;27.08;16.60;;;;;;;;;;5033459;28;20573;-55
2021/01/10 11:38:39;;;;;;;27.30;15.95;;;;;;;;;;5033501;28;20624;-55
2021/01/10 11:41:07;;;;;;;29.98;16.80;;;;;;;;;;5032936;28;20697;-55
2021/01/10 11:43:34;;;;;;;24.63;15.35;;;;;;;;;;5033417;28;20198;-56
2021/01/10 11:46:01;;;;;;;21.70;14.13;;;;;;;;;;5034043;28;20206;-58
2021/01/10 11:48:28;;;;;;;23.98;14.20;;;;;;;;;;5033941;28;20202;-57
2021/01/10 11:50:56;;;;;;;23.48;15.45;;;;;;;;;;5034489;28;20223;-57
2021/01/10 11:53:22;;;;;;;25.30;15.20;;;;;;;;;;5033472;28;20198;-56
2021/01/10 11:55:49;;;;;;;25.30;14.13;;;;;;;;;;5033652;28;20198;-56
2021/01/10 11:58:16;;;;;;;21.65;13.45;;;;;;;;;;5032947;28;20563;-56
2021/01/10 12:00:43;;;;;;;23.92;13.90;;;;;;;;;;5033541;28;20206;-57
2021/01/10 12:03:09;;;;;;;21.55;12.70;;;;;;;;;;5033096;28;20206;-56
2021/01/10 12:05:39;;;;;;;15.93;11.35;;;;;;;;;;5033113;28;20202;-56
2021/01/10 12:08:07;;;;;;;18.05;11.32;;;;;;;;;;5034169;28;20229;-56
2021/01/10 12:10:34;;;;;;;19.13;11.90;;;;;;;;;;5032812;28;20554;-57
2021/01/10 12:13:02;;;;;;;17.50;11.95;;;;;;;;;;5034249;28;20623;-57
2021/01/10 12:15:29;;;;;;;17.02;10.57;;;;;;;;;;5032784;28;20198;-57
2021/01/10 12:17:56;;;;;;;13.50;9.00;;;;;;;;;;5033676;28;20225;-58
2021/01/10 12:20:23;;;;;;;15.88;10.50;;;;;;;;;;5032584;28;20202;-57
2021/01/10 12:22:50;;;;;;;15.05;9.90;;;;;;;;;;5032481;28;20351;-57
2021/01/10 12:25:17;;;;;;;13.70;8.90;;;;;;;;;;5032695;28;20252;-56
2021/01/10 12:27:45;;;;;;;15.63;10.65;;;;;;;;;;5033488;28;20244;-57
2021/01/10 12:30:12;;;;;;;14.85;9.88;;;;;;;;;;5036421;28;20692;-57
2021/01/10 12:32:39;;;;;;;14.30;9.77;;;;;;;;;;5036804;28;20219;-56
2021/01/10 12:35:07;;;;;;;16.02;10.05;;;;;;;;;;5036362;28;20208;-56
2021/01/10 12:37:34;;;;;;;13.40;10.43;;;;;;;;;;5036495;28;20662;-56
2021/01/10 12:40:01;;;;;;;14.77;9.57;;;;;;;;;;5036793;28;20210;-56
2021/01/10 12:42:29;;;;;;;13.52;9.05;;;;;;;;;;5036360;28;20222;-57
2021/01/10 12:44:55;;;;;;;12.75;9.35;;;;;;;;;;5036085;28;20206;-57
2021/01/10 12:47:22;;;;;;;12.90;9.35;;;;;;;;;;5036574;28;20214;-56
2021/01/10 12:49:49;;;;;;;15.52;10.45;;;;;;;;;;5037005;28;20205;-55
2021/01/10 12:52:16;;;;;;;14.13;9.63;;;;;;;;;;5036548;28;20222;-55
2021/01/10 12:54:42;;;;;;;11.00;8.80;;;;;;;;;;5036329;28;20207;-56
2021/01/10 12:57:09;;;;;;;14.93;10.15;;;;;;;;;;5036067;28;20202;-55
2021/01/10 12:59:37;;;;;;;15.02;9.93;;;;;;;;;;5036332;28;20266;-56
2021/01/10 13:02:05;;;;;;;14.50;10.07;;;;;;;;;;5036199;28;20225;-55
2021/01/10 13:04:32;;;;;;;12.20;8.60;;;;;;;;;;5036730;28;20206;-55
2021/01/10 13:06:59;;;;;;;14.10;9.90;;;;;;;;;;5036319;28;20759;-54
2021/01/10 13:09:27;;;;;;;12.93;9.40;;;;;;;;;;5036570;28;20346;-54
2021/01/10 13:11:58;;;;;;;19.50;10.27;;;;;;;;;;5036807;28;20222;-55
2021/01/10 13:14:24;;;;;;;14.85;9.70;;;;;;;;;;5036140;28;20233;-55
2021/01/10 13:16:52;;;;;;;13.57;9.38;;;;;;;;;;5035829;28;20202;-56
2021/01/10 13:19:19;;;;;;;14.68;9.55;;;;;;;;;;5035816;28;20214;-56
2021/01/10 13:21:46;;;;;;;14.55;9.43;;;;;;;;;;5035628;28;20238;-56
2021/01/10 13:24:13;;;;;;;14.45;9.40;;;;;;;;;;5036005;28;20213;-55
2021/01/10 13:26:40;;;;;;;13.25;8.50;;;;;;;;;;5035653;28;20305;-55
2021/01/10 13:29:06;;;;;;;11.35;8.27;;;;;;;;;;5035681;28;20249;-55
2021/01/10 13:31:34;;;;;;;11.75;8.35;;;;;;;;;;5035861;28;20285;-57
2021/01/10 13:34:02;;;;;;;13.07;8.27;;;;;;;;;;5035731;28;20293;-56
2021/01/10 13:36:29;;;;;;;11.77;7.78;;;;;;;;;;5036315;28;20194;-57
2021/01/10 13:38:56;;;;;;;11.45;8.52;;;;;;;;;;5037029;28;20206;-57
2021/01/10 13:41:24;;;;;;;12.63;8.70;;;;;;;;;;5037078;28;20230;-57
2021/01/10 13:43:51;;;;;;;12.18;9.70;;;;;;;;;;5036914;28;20740;-56
2021/01/10 13:46:19;;;;;;;13.50;9.07;;;;;;;;;;5036438;28;20229;-56
2021/01/10 13:48:46;;;;;;;12.13;8.38;;;;;;;;;;5035432;28;20567;-56
2021/01/10 13:51:17;;;;;;;14.48;10.55;;;;;;;;;;5035008;28;20313;-55
2021/01/10 13:53:44;;;;;;;14.15;9.27;;;;;;;;;;5035348;28;20206;-56
2021/01/10 13:56:20;;;;;;;20.52;9.85;;;;;;;;;;5035526;28;20210;-55
2021/01/10 13:58:47;;;;;;;13.55;9.18;;;;;;;;;;5035894;28;20205;-55
2021/01/10 14:01:14;;;;;;;15.63;8.65;;;;;;;;;;5035376;28;20223;-55
2021/01/10 14:03:41;;;;;;;16.27;9.55;;;;;;;;;;5035249;28;20202;-56
2021/01/10 14:06:08;;;;;;;13.10;8.73;;;;;;;;;;5034963;28;20198;-56
2021/01/10 14:08:36;;;;;;;15.55;10.00;;;;;;;;;;5035123;28;20202;-56
2021/01/10 14:11:03;;;;;;;13.38;9.65;;;;;;;;;;5034835;28;20229;-57
2021/01/10 14:13:30;;;;;;;14.50;9.68;;;;;;;;;;5034821;28;20202;-57
2021/01/10 14:15:56;;;;;;;16.88;10.20;;;;;;;;;;5034871;28;20209;-56
2021/01/10 14:18:23;;;;;;;13.65;9.85;;;;;;;;;;5034786;28;20674;-58
2021/01/10 14:20:50;;;;;;;18.63;11.43;;;;;;;;;;5035197;28;20202;-55
2021/01/10 14:23:17;;;;;;;18.35;10.93;;;;;;;;;;5035511;28;20183;-56
2021/01/10 14:25:45;;;;;;;18.90;10.90;;;;;;;;;;5035492;28;20551;-56
2021/01/10 14:28:12;;;;;;;17.52;10.35;;;;;;;;;;5034634;28;20215;-55